createdAt,value
2023-01-05T00:02:53.676Z,4.32
2023-01-05T00:06:02.035Z,3.42
2023-01-05T00:09:08.045Z,3.85
2023-01-05T00:12:25.687Z,3.40
2023-01-05T00:15:43.658Z,3.50
2023-01-05T00:19:03.764Z,4.50
2023-01-05T00:22:25.990Z,5.65
2023-01-05T00:25:32.191Z,3.80
2023-01-05T00:28:37.876Z,7.85
2023-01-05T00:31:42.979Z,6.80
2023-01-05T00:34:54.700Z,3.90
2023-01-05T00:38:00.303Z,6.90
2023-01-05T00:41:05.845Z,5.13
2023-01-05T00:44:11.214Z,5.72
2023-01-05T00:47:17.251Z,6.18
2023-01-05T00:50:26.841Z,7.03
2023-01-05T00:53:32.514Z,5.72
2023-01-05T00:56:37.922Z,4.47
2023-01-05T00:59:43.545Z,5.05
2023-01-05T01:02:54.246Z,5.95
2023-01-05T01:06:03.354Z,4.75
2023-01-05T01:09:08.797Z,7.20
2023-01-05T01:12:14.361Z,5.55
2023-01-05T01:15:19.593Z,5.50
2023-01-05T01:18:25.125Z,6.53
2023-01-05T01:21:33.714Z,7.47
2023-01-05T01:24:39.525Z,6.13
2023-01-05T01:27:44.972Z,5.75
2023-01-05T01:30:50.098Z,6.53
2023-01-05T01:33:55.847Z,6.30
2023-01-05T01:37:03.948Z,6.03
2023-01-05T01:40:15.527Z,8.65
2023-01-05T01:43:22.627Z,11.70
2023-01-05T01:46:28.990Z,7.63
2023-01-05T01:49:34.499Z,7.97
2023-01-05T01:52:47.753Z,9.50
2023-01-05T01:55:54.141Z,9.20
2023-01-05T01:58:59.334Z,8.27
2023-01-05T02:02:06.900Z,5.80
2023-01-05T02:05:14.437Z,4.10
2023-01-05T02:08:31.443Z,6.60
2023-01-05T02:11:42.575Z,5.10
2023-01-05T02:14:58.987Z,4.78
2023-01-05T02:18:15.464Z,3.40
2023-01-05T02:21:27.369Z,7.55
2023-01-05T02:24:55.851Z,7.05
2023-01-05T02:28:08.031Z,5.75
2023-01-05T02:31:20.249Z,6.10
2023-01-05T02:34:31.962Z,5.38
2023-01-05T02:37:41.051Z,6.97
2023-01-05T02:40:48.478Z,6.47
2023-01-05T02:43:54.331Z,8.88
2023-01-05T02:47:06.053Z,6.28
2023-01-05T02:50:14.790Z,8.13
2023-01-05T02:53:23.825Z,7.68
2023-01-05T02:59:37.831Z,6.50
2023-01-05T03:02:48.613Z,6.50
2023-01-05T03:05:57.850Z,7.22
2023-01-05T03:09:05.804Z,5.15
2023-01-05T03:12:27.135Z,6.97
2023-01-05T03:15:33.420Z,6.90
2023-01-05T03:18:55.690Z,6.25
2023-01-05T03:22:15.261Z,7.30
2023-01-05T03:25:36.018Z,9.13
2023-01-05T03:28:55.281Z,9.20
2023-01-05T03:32:18.389Z,7.97
2023-01-05T03:35:34.672Z,9.80
2023-01-05T03:38:44.449Z,8.02
2023-01-05T03:41:51.688Z,7.38
2023-01-05T03:44:57.238Z,6.32
2023-01-05T03:48:06.061Z,9.07
2023-01-05T03:51:14.149Z,6.00
2023-01-05T03:54:19.999Z,8.63
2023-01-05T03:57:26.121Z,5.35
2023-01-05T04:00:33.208Z,6.28
2023-01-05T04:03:42.394Z,20.05
2023-01-05T04:06:50.653Z,6.50
2023-01-05T04:09:56.571Z,7.03
2023-01-05T04:13:01.773Z,6.50
2023-01-05T04:16:08.024Z,7.43
2023-01-05T04:19:15.686Z,4.55
2023-01-05T04:22:27.375Z,8.00
2023-01-05T04:25:34.115Z,4.22
2023-01-05T04:28:50.634Z,5.05
2023-01-05T04:31:59.218Z,5.35
2023-01-05T04:35:10.883Z,4.50
2023-01-05T04:38:21.582Z,5.80
2023-01-05T04:41:27.783Z,8.73
2023-01-05T04:44:34.202Z,4.93
2023-01-05T04:47:42.517Z,5.85
2023-01-05T04:50:55.102Z,6.38
2023-01-05T04:54:09.148Z,6.10
2023-01-05T04:57:14.658Z,7.47
2023-01-05T05:00:20.610Z,3.78
2023-01-05T05:03:32.965Z,4.65
2023-01-05T05:06:39.762Z,8.27
2023-01-05T05:09:48.320Z,7.85
2023-01-05T05:12:54.334Z,6.05
2023-01-05T05:16:01.232Z,5.07
2023-01-05T05:19:08.651Z,5.28
2023-01-05T05:22:14.648Z,4.82
2023-01-05T05:25:22.702Z,7.60
2023-01-05T05:28:29.746Z,8.38
2023-01-05T05:31:35.098Z,6.53
2023-01-05T05:34:40.788Z,8.55
2023-01-05T05:37:50.050Z,7.10
2023-01-05T05:41:01.282Z,6.13
2023-01-05T05:47:12.055Z,6.95
2023-01-05T05:50:17.553Z,5.82
2023-01-05T05:53:25.648Z,10.18
2023-01-05T05:56:33.622Z,9.85
2023-01-05T05:59:38.945Z,7.65
2023-01-05T06:02:44.315Z,7.80
2023-01-05T06:05:49.817Z,5.40
2023-01-05T06:08:55.057Z,8.40
2023-01-05T06:12:03.199Z,6.60
2023-01-05T06:15:09.102Z,6.30
2023-01-05T06:18:14.922Z,7.53
2023-01-05T06:21:21.630Z,7.13
2023-01-05T06:24:27.008Z,10.45
2023-01-05T06:27:34.830Z,9.95
2023-01-05T06:30:40.324Z,4.28
2023-01-05T06:33:45.728Z,4.85
2023-01-05T06:36:51.103Z,4.72
2023-01-05T06:39:57.207Z,7.07
2023-01-05T06:43:05.265Z,6.40
2023-01-05T06:46:10.881Z,8.90
2023-01-05T06:49:16.370Z,9.77
2023-01-05T06:52:21.400Z,10.43
2023-01-05T06:55:27.174Z,7.57
2023-01-05T06:58:34.981Z,8.57
2023-01-05T07:01:40.485Z,6.90
2023-01-05T07:04:45.731Z,11.65
2023-01-05T07:07:50.967Z,7.13
2023-01-05T07:10:56.517Z,7.72
2023-01-05T07:14:04.618Z,7.57
2023-01-05T07:17:09.915Z,5.68
2023-01-05T07:20:15.326Z,6.47
2023-01-05T07:23:20.756Z,6.43
2023-01-05T07:26:26.038Z,7.63
2023-01-05T07:29:34.016Z,7.95
2023-01-05T07:32:39.619Z,9.18
2023-01-05T07:35:44.979Z,5.97
2023-01-05T07:38:50.551Z,5.78
2023-01-05T07:41:55.763Z,7.18
2023-01-05T07:45:06.475Z,6.88
2023-01-05T07:48:12.203Z,6.72
2023-01-05T07:51:18.334Z,7.10
2023-01-05T07:54:23.926Z,8.00
2023-01-05T07:57:29.514Z,7.32
2023-01-05T08:00:37.884Z,7.72
2023-01-05T08:03:43.540Z,9.20
2023-01-05T08:06:48.993Z,8.65
2023-01-05T08:10:06.343Z,9.23
2023-01-05T08:13:25.125Z,10.60
2023-01-05T08:16:34.556Z,12.43
2023-01-05T08:19:40.251Z,14.93
2023-01-05T08:22:45.393Z,11.57
2023-01-05T08:25:50.681Z,15.40
2023-01-05T08:28:56.575Z,12.80
2023-01-05T08:32:04.247Z,9.68
2023-01-05T08:35:10.295Z,11.93
2023-01-05T08:38:15.906Z,12.40
2023-01-05T08:41:22.173Z,10.48
2023-01-05T08:44:27.270Z,16.02
2023-01-05T08:47:35.127Z,13.00
2023-01-05T08:50:40.454Z,13.38
2023-01-05T08:53:45.703Z,11.20
2023-01-05T08:56:51.164Z,12.70
2023-01-05T08:59:56.979Z,10.68
2023-01-05T09:03:04.751Z,11.70
2023-01-05T09:06:12.391Z,9.40
2023-01-05T09:09:17.959Z,5.45
2023-01-05T09:12:25.783Z,10.23
2023-01-05T09:15:34.884Z,9.45
2023-01-05T09:18:43.563Z,10.57
2023-01-05T09:21:48.993Z,15.07
2023-01-05T09:24:54.552Z,12.48
2023-01-05T09:28:00.107Z,10.75
2023-01-05T09:31:09.674Z,12.18
2023-01-05T09:34:19.267Z,13.00
2023-01-05T09:37:24.572Z,7.88
2023-01-05T09:40:30.825Z,7.80
2023-01-05T09:43:38.394Z,5.85
2023-01-05T09:46:46.012Z,6.23
2023-01-05T09:49:54.551Z,10.63
2023-01-05T09:56:04.663Z,11.18
2023-01-05T09:59:13.937Z,9.05
2023-01-05T10:02:29.628Z,5.45
2023-01-05T10:05:40.269Z,8.07
2023-01-05T10:08:47.676Z,7.72
2023-01-05T10:12:07.340Z,4.70
2023-01-05T10:15:15.599Z,7.10
2023-01-05T10:18:22.057Z,6.00
2023-01-05T10:21:33.589Z,9.93
2023-01-05T10:24:45.482Z,5.45
2023-01-05T10:27:56.879Z,7.90
2023-01-05T10:31:02.940Z,8.68
2023-01-05T10:34:16.329Z,11.57
2023-01-05T10:37:28.919Z,6.43
2023-01-05T10:40:42.154Z,6.82
2023-01-05T10:43:56.623Z,8.90
2023-01-05T10:47:02.370Z,6.38
2023-01-05T10:50:21.291Z,6.72
2023-01-05T10:53:30.589Z,6.22
2023-01-05T10:56:36.131Z,7.95
2023-01-05T10:59:57.012Z,8.93
2023-01-05T11:03:07.719Z,7.45
2023-01-05T11:06:21.798Z,8.00
2023-01-05T11:09:30.208Z,8.07
2023-01-05T11:15:44.209Z,8.10
2023-01-05T11:18:51.453Z,6.68
2023-01-05T11:22:01.904Z,8.30
2023-01-05T11:25:22.967Z,12.27
2023-01-05T11:28:29.844Z,8.88
2023-01-05T11:31:43.089Z,7.63
2023-01-05T11:34:49.513Z,7.03
2023-01-05T11:37:54.750Z,7.97
2023-01-05T11:41:03.942Z,6.50
2023-01-05T11:44:09.690Z,7.40
2023-01-05T11:47:21.975Z,8.98
2023-01-05T11:50:29.025Z,6.95
2023-01-05T11:53:41.647Z,6.93
2023-01-05T11:56:49.507Z,9.80
2023-01-05T11:59:56.013Z,7.97
2023-01-05T12:03:16.395Z,11.20
2023-01-05T12:06:28.543Z,8.15
2023-01-05T12:09:35.789Z,8.90
2023-01-05T12:12:51.964Z,8.10
2023-01-05T12:16:15.358Z,6.30
2023-01-05T12:19:29.789Z,7.60
2023-01-05T12:22:41.686Z,8.02
2023-01-05T12:25:52.721Z,7.10
2023-01-05T12:36:15.212Z,7.65
2023-01-05T12:39:32.150Z,8.02
2023-01-05T12:42:47.825Z,7.38
2023-01-05T12:46:10.806Z,7.20
2023-01-05T12:49:18.784Z,7.78
2023-01-05T12:52:29.421Z,8.95
2023-01-05T12:55:37.098Z,9.35
2023-01-05T12:58:46.727Z,10.52
2023-01-05T13:02:02.964Z,8.90
2023-01-05T13:05:10.530Z,6.13
2023-01-05T13:08:18.311Z,7.05
2023-01-05T13:11:25.458Z,11.82
2023-01-05T13:14:31.940Z,7.27
2023-01-05T13:17:41.820Z,10.63
2023-01-05T13:20:48.851Z,11.57
2023-01-05T13:23:55.115Z,10.35
2023-01-05T13:27:02.463Z,6.97
2023-01-05T13:30:09.373Z,8.83
2023-01-05T13:33:29.097Z,8.88
2023-01-05T13:36:46.228Z,9.80
2023-01-05T13:39:58.734Z,10.50
2023-01-05T13:43:11.173Z,8.60
2023-01-05T13:46:26.925Z,6.18
2023-01-05T13:49:56.116Z,7.15
2023-01-05T13:53:07.176Z,8.15
2023-01-05T13:56:16.431Z,8.57
2023-01-05T13:59:35.177Z,6.93
2023-01-05T14:02:46.910Z,8.10
2023-01-05T14:05:53.930Z,10.32
2023-01-05T14:12:44.825Z,11.20
2023-01-05T14:15:49.926Z,10.68
2023-01-05T14:18:55.928Z,7.20
2023-01-05T14:22:16.283Z,9.85
2023-01-05T14:25:37.026Z,8.93
2023-01-05T14:28:51.317Z,8.55
2023-01-05T14:31:59.703Z,10.48
2023-01-05T14:35:09.967Z,8.70
2023-01-05T14:38:20.733Z,11.45
2023-01-05T14:41:27.209Z,7.97
2023-01-05T14:44:34.427Z,9.93
2023-01-05T14:47:44.476Z,7.32
2023-01-05T14:50:50.096Z,8.07
2023-01-05T14:53:56.380Z,7.70
2023-01-05T14:57:19.514Z,9.70
2023-01-05T15:00:39.647Z,8.23
2023-01-05T15:03:50.570Z,6.00
2023-01-05T15:07:09.897Z,10.15
2023-01-05T15:10:20.950Z,8.35
2023-01-05T15:13:43.771Z,7.32
2023-01-05T15:17:00.495Z,6.45
2023-01-05T15:20:29.695Z,10.68
2023-01-05T15:23:53.226Z,12.80
2023-01-05T15:27:06.193Z,9.60
2023-01-05T15:30:26.738Z,10.85
2023-01-05T15:33:34.723Z,8.98
2023-01-05T15:39:52.362Z,10.02
2023-01-05T15:42:58.088Z,8.35
2023-01-05T15:46:04.448Z,9.30
2023-01-05T15:49:09.989Z,13.50
2023-01-05T15:52:21.941Z,11.65
2023-01-05T15:55:30.927Z,10.27
2023-01-05T15:58:37.119Z,10.98
2023-01-05T16:01:42.117Z,9.38
2023-01-05T16:04:47.256Z,8.52
2023-01-05T16:07:57.885Z,8.30
2023-01-05T16:11:07.337Z,11.93
2023-01-05T16:14:19.431Z,9.27
2023-01-05T16:17:26.448Z,10.15
2023-01-05T16:20:32.727Z,11.60
2023-01-05T16:23:39.734Z,11.40
2023-01-05T16:26:47.793Z,12.53
2023-01-05T16:29:53.866Z,9.68
2023-01-05T16:32:59.674Z,12.15
2023-01-05T16:36:13.277Z,11.20
2023-01-05T16:39:25.352Z,13.30
2023-01-05T16:42:40.670Z,7.95
2023-01-05T16:45:46.327Z,9.55
2023-01-05T16:48:54.135Z,10.57
2023-01-05T16:52:00.186Z,18.58
2023-01-05T16:55:27.689Z,12.07
2023-01-05T16:58:40.017Z,15.90
2023-01-05T17:01:47.217Z,15.00
2023-01-05T17:04:52.529Z,13.40
2023-01-05T17:08:01.493Z,12.13
2023-01-05T17:11:07.632Z,10.68
2023-01-05T17:14:17.038Z,14.68
2023-01-05T17:17:22.048Z,13.77
2023-01-05T17:20:28.285Z,11.68
2023-01-05T17:23:36.867Z,15.55
2023-01-05T17:26:43.840Z,17.75
2023-01-05T17:29:53.368Z,18.08
2023-01-05T17:32:59.154Z,15.65
2023-01-05T17:36:05.516Z,11.38
2023-01-05T17:39:11.144Z,12.68
2023-01-05T17:42:28.743Z,17.45
2023-01-05T17:45:37.384Z,20.00
2023-01-05T17:48:42.748Z,17.17
2023-01-05T17:51:47.880Z,23.35
2023-01-05T17:54:53.422Z,17.27
2023-01-05T17:57:58.843Z,19.05
2023-01-05T18:01:08.735Z,16.88
2023-01-05T18:04:14.001Z,15.18
2023-01-05T18:07:19.313Z,19.20
2023-01-05T18:10:27.029Z,19.27
2023-01-05T18:13:35.137Z,14.70
2023-01-05T18:16:46.606Z,19.50
2023-01-05T18:19:52.027Z,16.33
2023-01-05T18:22:57.487Z,18.85
2023-01-05T18:26:05.158Z,22.25
2023-01-05T18:29:10.215Z,19.13
2023-01-05T18:32:19.485Z,16.30
2023-01-05T18:35:24.860Z,18.92
2023-01-05T18:38:30.372Z,18.45
2023-01-05T18:41:35.814Z,16.73
2023-01-05T18:44:43.243Z,17.33
2023-01-05T18:47:51.418Z,19.50
2023-01-05T18:50:56.742Z,23.48
2023-01-05T18:54:02.053Z,16.73
2023-01-05T18:57:07.754Z,21.92
2023-01-05T19:00:14.042Z,23.02
2023-01-05T19:03:22.009Z,24.63
2023-01-05T19:06:28.175Z,24.52
2023-01-05T19:09:33.586Z,20.08
2023-01-05T19:12:39.219Z,17.10
2023-01-05T19:15:44.537Z,20.50
2023-01-05T19:18:58.674Z,21.00
2023-01-05T19:22:04.112Z,21.05
2023-01-05T19:25:09.604Z,23.30
2023-01-05T19:28:14.973Z,15.10
2023-01-05T19:31:23.663Z,14.20
2023-01-05T19:34:32.067Z,17.15
2023-01-05T19:37:38.718Z,16.27
2023-01-05T19:40:44.082Z,17.00
2023-01-05T19:43:50.802Z,17.33
2023-01-05T19:46:56.240Z,16.77
2023-01-05T19:50:04.548Z,14.15
2023-01-05T19:53:10.029Z,14.60
2023-01-05T19:56:16.478Z,15.70
2023-01-05T19:59:23.003Z,15.70
2023-01-05T20:02:28.917Z,18.17
2023-01-05T20:05:37.141Z,17.67
2023-01-05T20:08:43.150Z,11.70
2023-01-05T20:11:51.705Z,14.70
2023-01-05T20:14:58.899Z,14.27
2023-01-05T20:18:04.136Z,10.23
2023-01-05T20:21:12.499Z,18.10
2023-01-05T20:24:18.792Z,13.10
2023-01-05T20:27:24.330Z,11.02
2023-01-05T20:30:29.348Z,12.98
2023-01-05T20:33:35.310Z,13.93
2023-01-05T20:36:43.370Z,9.73
2023-01-05T20:39:49.001Z,16.48
2023-01-05T20:42:54.378Z,10.82
2023-01-05T20:45:59.992Z,9.45
2023-01-05T20:49:05.401Z,10.77
2023-01-05T20:52:13.770Z,9.80
2023-01-05T20:55:19.725Z,12.30
2023-01-05T20:58:25.074Z,16.55
2023-01-05T21:01:30.691Z,11.35
2023-01-05T21:04:36.092Z,15.55
2023-01-05T21:07:44.085Z,12.27
2023-01-05T21:10:49.593Z,11.95
2023-01-05T21:13:56.353Z,19.30
2023-01-05T21:17:01.671Z,8.80
2023-01-05T21:20:08.732Z,13.05
2023-01-05T21:23:16.618Z,12.68
2023-01-05T21:29:26.837Z,13.50
2023-01-05T21:32:32.435Z,15.57
2023-01-05T21:35:37.699Z,8.15
2023-01-05T21:39:01.826Z,10.35
2023-01-05T21:42:21.176Z,15.02
2023-01-05T21:45:27.134Z,12.13
2023-01-05T21:48:32.611Z,12.73
2023-01-05T21:51:50.260Z,11.68
2023-01-05T21:55:10.730Z,10.95
2023-01-05T21:58:16.342Z,12.38
2023-01-05T22:01:21.615Z,8.25
2023-01-05T22:04:27.184Z,7.82
2023-01-05T22:07:32.563Z,10.00
2023-01-05T22:10:40.536Z,11.23
2023-01-05T22:13:46.747Z,10.13
2023-01-05T22:16:52.059Z,12.23
2023-01-05T22:19:57.857Z,9.40
2023-01-05T22:23:03.125Z,10.85
2023-01-05T22:26:12.517Z,9.38
2023-01-05T22:29:19.125Z,12.73
2023-01-05T22:32:24.715Z,12.83
2023-01-05T22:35:29.964Z,8.40
2023-01-05T22:38:36.778Z,8.80
2023-01-05T22:41:45.876Z,8.52
2023-01-05T22:44:51.249Z,12.45
2023-01-05T22:47:56.364Z,12.38
2023-01-05T22:51:05.003Z,11.00
2023-01-05T22:54:10.831Z,8.75
2023-01-05T22:57:18.937Z,9.80
2023-01-05T23:00:24.423Z,8.82
2023-01-05T23:03:30.134Z,8.10
2023-01-05T23:06:35.963Z,8.32
2023-01-05T23:09:41.174Z,8.30
2023-01-05T23:12:49.097Z,13.25
2023-01-05T23:15:56.043Z,11.57
2023-01-05T23:19:01.674Z,9.02
2023-01-05T23:22:07.017Z,6.75
2023-01-05T23:25:12.554Z,7.55
2023-01-05T23:28:21.089Z,8.88
2023-01-05T23:31:26.759Z,5.68
2023-01-05T23:34:32.597Z,12.75
2023-01-05T23:37:38.077Z,9.45
2023-01-05T23:40:43.851Z,7.45
2023-01-05T23:43:52.129Z,11.13
2023-01-05T23:46:57.437Z,7.90
2023-01-05T23:50:02.981Z,10.70
2023-01-05T23:53:08.594Z,9.55
2023-01-05T23:56:14.884Z,6.70
2023-01-05T23:59:23.219Z,11.40
